Startpagina
METAR-TAF:

METAR-TAF

Vliegvelden :

Cajamarca, Peru

breedte: 07-08S, lengte: 078-28W, hoogte: 2620 m

Actueel weer

Dit bericht is 10 uur en het 42 minuten geleden gemaakt, om 19:00 UTC
Wind 6 kt uit het oostnoordoosten, variërend tussen het noorden en het oostzuidoosten
Temperatuur 21°C
Vochtigheid 40%
Druk 1027 hPa
Zicht 10 km of meer
Verspreide wolken op 2100 ft
Gebroken wolken op 4300 ft

METAR: SPJR 051900Z 06006KT 010V120 9999 SCT021 BKN043 21/07 Q1027 RMK PP000

Tijdstip: 00:42 (05:42 UTC)

Verwachting

Dit bericht is 13 uur en het 12 minuten geleden gemaakt, om 16:30 UTC
Verwachting geldig van 05 om 18 UTC tot 06 om 18 UTC
Wind 6 kt uit variabele richting
Zicht 10 km of meer
Verspreide wolken op 2300 ft
Gebroken wolken op 4000 ft
Tijdelijke
van 05 om 19 UTC tot 05 om 21 UTC
Zicht: 7000 m
Verspreide wolken op 2000 ft
Gebroken wolken op 3300 ft
lichte regen

TAF: SPJR 051630Z 0518/0618 VRB06KT 9999 SCT023 BKN040 TX22/0519Z TN09/0611Z TEMPO 0519/0521 7000 -RA SCT020 BKN033

Waarnemingen en weersverwachtingen van meer dan 4000 vliegvelden (METAR en TAF).

De beschikbare stations zijn de gele en rode punten op de kaart.

Ga met uw muis naar het station om de naam te zien.

Klik dan om waarnemingen en weersverwachtingen te zien.

kaart wijzigen: klik op de groene knoppen met een zwart kruis om in te zoomen, op de groene knop met een streepje om uit te zoomen of op de groene pijlen voor aangrenzende kaarten.


METAR-TAF: